createdAt,value
2023-05-12T00:00:43.930Z,755.00
2023-05-12T00:01:43.893Z,755.00
2023-05-12T00:02:44.044Z,754.00
2023-05-12T00:03:44.157Z,754.00
2023-05-12T00:04:43.929Z,754.00
2023-05-12T00:05:43.856Z,754.00
2023-05-12T00:06:43.843Z,754.00
2023-05-12T00:07:43.801Z,754.00
2023-05-12T00:08:43.845Z,754.00
2023-05-12T00:09:43.793Z,754.00
2023-05-12T00:10:43.794Z,754.00
2023-05-12T00:11:43.773Z,753.00
2023-05-12T00:12:43.784Z,753.00
2023-05-12T00:13:43.830Z,753.00
2023-05-12T00:14:43.719Z,754.00
2023-05-12T00:15:43.710Z,753.00
2023-05-12T00:16:43.833Z,753.00
2023-05-12T00:17:43.699Z,753.00
2023-05-12T00:18:43.737Z,753.00
2023-05-12T00:19:43.688Z,753.00
2023-05-12T00:20:43.629Z,753.00
2023-05-12T00:21:43.639Z,753.00
2023-05-12T00:22:43.618Z,753.00
2023-05-12T00:23:43.629Z,753.00
2023-05-12T00:24:43.618Z,752.00
2023-05-12T00:25:43.608Z,752.00
2023-05-12T00:26:43.576Z,752.00
2023-05-12T00:27:43.731Z,752.00
2023-05-12T00:28:43.528Z,752.00
2023-05-12T00:29:43.546Z,751.00
2023-05-12T00:30:43.502Z,751.00
2023-05-12T00:31:43.567Z,750.00
2023-05-12T00:32:43.534Z,750.00
2023-05-12T00:33:43.481Z,750.00
2023-05-12T00:34:43.520Z,750.00
2023-05-12T00:35:43.474Z,750.00
2023-05-12T00:36:43.435Z,750.00
2023-05-12T00:37:43.434Z,749.00
2023-05-12T00:38:43.417Z,749.00
2023-05-12T00:39:43.408Z,749.00
2023-05-12T00:40:43.388Z,750.00
2023-05-12T00:41:43.378Z,750.00
2023-05-12T00:42:43.386Z,750.00
2023-05-12T00:43:43.350Z,750.00
2023-05-12T00:44:43.354Z,750.00
2023-05-12T00:45:43.367Z,751.00
2023-05-12T00:46:43.316Z,750.00
2023-05-12T00:47:43.366Z,751.00
2023-05-12T00:48:43.271Z,751.00
2023-05-12T00:49:43.304Z,750.00
2023-05-12T00:50:43.272Z,750.00
2023-05-12T00:51:43.271Z,750.00
2023-05-12T00:52:43.217Z,750.00
2023-05-12T00:53:49.790Z,750.00
2023-05-12T00:54:43.195Z,750.00
2023-05-12T00:55:43.194Z,750.00
2023-05-12T00:56:43.175Z,750.00
2023-05-12T00:57:43.159Z,750.00
2023-05-12T00:58:43.142Z,750.00
2023-05-12T00:59:43.140Z,751.00
2023-05-12T01:00:43.133Z,751.00
2023-05-12T01:01:43.136Z,751.00
2023-05-12T01:02:43.148Z,751.00
2023-05-12T01:03:43.126Z,751.00
2023-05-12T01:04:43.062Z,751.00
2023-05-12T01:05:43.045Z,751.00
2023-05-12T01:06:43.027Z,751.00
2023-05-12T01:07:43.040Z,751.00
2023-05-12T01:08:43.014Z,751.00
2023-05-12T01:09:43.005Z,751.00
2023-05-12T01:10:42.973Z,751.00
2023-05-12T01:11:42.982Z,751.00
2023-05-12T01:12:42.950Z,751.00
2023-05-12T01:13:42.949Z,751.00
2023-05-12T01:14:42.941Z,751.00
2023-05-12T01:15:42.934Z,751.00
2023-05-12T01:16:42.946Z,751.00
2023-05-12T01:17:43.076Z,751.00
2023-05-12T01:18:42.911Z,751.00
2023-05-12T01:19:42.848Z,751.00
2023-05-12T01:20:42.849Z,751.00
2023-05-12T01:21:42.833Z,751.00
2023-05-12T01:22:42.831Z,751.00
2023-05-12T01:23:42.867Z,751.00
2023-05-12T01:24:42.781Z,751.00
2023-05-12T01:25:42.817Z,751.00
2023-05-12T01:26:42.768Z,751.00
2023-05-12T01:27:42.775Z,751.00
2023-05-12T01:28:42.748Z,751.00
2023-05-12T01:29:42.752Z,751.00
2023-05-12T01:30:42.769Z,751.00
2023-05-12T01:31:42.729Z,751.00
2023-05-12T01:32:42.739Z,752.00
2023-05-12T01:33:42.683Z,752.00
2023-05-12T01:34:42.643Z,751.00
2023-05-12T01:35:42.661Z,751.00
2023-05-12T01:36:42.652Z,751.00
2023-05-12T01:37:42.649Z,752.00
2023-05-12T01:38:42.632Z,752.00
2023-05-12T01:39:42.611Z,751.00
2023-05-12T01:40:42.585Z,751.00
2023-05-12T01:41:42.614Z,751.00
2023-05-12T01:42:42.552Z,751.00
2023-05-12T01:43:42.546Z,751.00
2023-05-12T01:44:42.545Z,751.00
2023-05-12T01:45:42.520Z,751.00
2023-05-12T01:46:42.558Z,751.00
2023-05-12T01:47:42.517Z,750.00
2023-05-12T01:48:42.471Z,750.00
2023-05-12T01:49:42.461Z,751.00
2023-05-12T01:50:42.462Z,751.00
2023-05-12T01:51:42.449Z,751.00
2023-05-12T01:52:42.435Z,751.00
2023-05-12T01:53:42.413Z,751.00
2023-05-12T01:54:42.421Z,751.00
2023-05-12T01:55:42.435Z,751.00
2023-05-12T01:56:42.387Z,751.00
2023-05-12T01:57:42.386Z,750.00
2023-05-12T01:58:42.400Z,750.00
2023-05-12T01:59:42.339Z,750.00
2023-05-12T02:00:42.311Z,750.00
2023-05-12T02:01:42.393Z,750.00
2023-05-12T02:02:43.182Z,750.00
2023-05-12T02:03:42.528Z,750.00
2023-05-12T02:04:42.263Z,750.00
2023-05-12T02:05:42.235Z,750.00
2023-05-12T02:06:42.260Z,749.00
2023-05-12T02:07:42.230Z,749.00
2023-05-12T02:08:42.191Z,749.00
2023-05-12T02:09:42.213Z,749.00
2023-05-12T02:10:42.163Z,749.00
2023-05-12T02:11:42.187Z,749.00
2023-05-12T02:12:42.136Z,748.00
2023-05-12T02:13:42.132Z,748.00
2023-05-12T02:14:42.185Z,748.00
2023-05-12T02:15:42.122Z,749.00
2023-05-12T02:16:42.181Z,748.00
2023-05-12T02:17:42.122Z,748.00
2023-05-12T02:18:42.121Z,748.00
2023-05-12T02:19:42.057Z,748.00
2023-05-12T02:20:42.054Z,748.00
2023-05-12T02:21:42.028Z,748.00
2023-05-12T02:22:42.022Z,748.00
2023-05-12T02:23:42.013Z,748.00
2023-05-12T02:24:42.018Z,748.00
2023-05-12T02:25:42.062Z,748.00
2023-05-12T02:26:42.017Z,748.00
2023-05-12T02:27:42.048Z,748.00
2023-05-12T02:28:42.091Z,748.00
2023-05-12T02:29:41.994Z,747.00
2023-05-12T02:30:41.951Z,747.00
2023-05-12T02:31:41.933Z,747.00
2023-05-12T02:32:41.893Z,747.00
2023-05-12T02:33:41.862Z,747.00
2023-05-12T02:34:41.867Z,747.00
2023-05-12T02:35:41.890Z,747.00
2023-05-12T02:36:41.849Z,746.00
2023-05-12T02:37:41.838Z,746.00
2023-05-12T02:38:41.810Z,746.00
2023-05-12T02:39:41.797Z,747.00
2023-05-12T02:40:41.784Z,746.00
2023-05-12T02:41:41.852Z,747.00
2023-05-12T02:42:42.188Z,746.00
2023-05-12T02:43:41.793Z,746.00
2023-05-12T02:44:41.761Z,746.00
2023-05-12T02:45:41.853Z,746.00
2023-05-12T02:46:41.701Z,746.00
2023-05-12T02:47:41.851Z,746.00
2023-05-12T02:48:41.699Z,746.00
2023-05-12T02:49:41.691Z,745.00
2023-05-12T02:50:41.693Z,745.00
2023-05-12T02:51:41.841Z,745.00
2023-05-12T02:52:41.656Z,745.00
2023-05-12T02:53:41.662Z,745.00
2023-05-12T02:54:41.677Z,745.00
2023-05-12T02:55:41.696Z,744.00
2023-05-12T02:56:41.743Z,744.00
2023-05-12T02:57:41.741Z,744.00
2023-05-12T02:58:41.775Z,744.00
2023-05-12T02:59:41.628Z,744.00
2023-05-12T03:00:41.665Z,744.00
2023-05-12T03:01:41.535Z,743.00
2023-05-12T03:02:41.598Z,743.00
2023-05-12T03:03:41.639Z,743.00
2023-05-12T03:04:41.543Z,742.00
2023-05-12T03:05:41.462Z,742.00
2023-05-12T03:06:41.473Z,742.00
2023-05-12T03:07:41.450Z,741.00
2023-05-12T03:08:41.427Z,741.00
2023-05-12T03:09:41.398Z,741.00
2023-05-12T03:10:41.376Z,741.00
2023-05-12T03:11:41.366Z,741.00
2023-05-12T03:12:41.420Z,741.00
2023-05-12T03:13:41.431Z,741.00
2023-05-12T03:14:41.451Z,741.00
2023-05-12T03:15:41.341Z,741.00
2023-05-12T03:16:41.366Z,740.00
2023-05-12T03:17:41.383Z,740.00
2023-05-12T03:18:41.290Z,740.00
2023-05-12T03:19:41.258Z,740.00
2023-05-12T03:20:41.221Z,740.00
2023-05-12T03:21:41.219Z,740.00
2023-05-12T03:22:41.217Z,740.00
2023-05-12T03:23:41.211Z,741.00
2023-05-12T03:24:41.183Z,741.00
2023-05-12T03:25:41.170Z,741.00
2023-05-12T03:26:41.162Z,740.00
2023-05-12T03:27:41.159Z,740.00
2023-05-12T03:28:41.143Z,740.00
2023-05-12T03:29:41.226Z,740.00
2023-05-12T03:30:41.102Z,740.00
2023-05-12T03:31:41.207Z,740.00
2023-05-12T03:32:41.083Z,740.00
2023-05-12T03:33:41.054Z,740.00
2023-05-12T03:34:41.071Z,740.00
2023-05-12T03:35:41.066Z,739.00
2023-05-12T03:36:41.036Z,739.00
2023-05-12T03:37:41.040Z,739.00
2023-05-12T03:38:40.997Z,738.00
2023-05-12T03:39:40.989Z,739.00
2023-05-12T03:40:40.959Z,739.00
2023-05-12T03:41:40.961Z,739.00
2023-05-12T03:42:40.954Z,739.00
2023-05-12T03:43:40.919Z,740.00
2023-05-12T03:44:40.906Z,740.00
2023-05-12T03:45:40.896Z,740.00
2023-05-12T03:46:40.951Z,739.00
2023-05-12T03:47:41.126Z,739.00
2023-05-12T03:48:40.854Z,739.00
2023-05-12T03:49:40.847Z,739.00
2023-05-12T03:50:40.835Z,739.00
2023-05-12T03:51:40.847Z,739.00
2023-05-12T03:52:40.840Z,739.00
2023-05-12T03:53:40.797Z,738.00
2023-05-12T03:54:40.822Z,738.00
2023-05-12T03:55:40.781Z,738.00
2023-05-12T03:56:40.756Z,739.00
2023-05-12T03:57:40.774Z,738.00
2023-05-12T03:58:40.737Z,738.00
2023-05-12T03:59:40.705Z,738.00
2023-05-12T04:00:40.748Z,739.00
2023-05-12T04:01:40.731Z,739.00
2023-05-12T04:02:40.698Z,739.00
2023-05-12T04:03:40.758Z,739.00
2023-05-12T04:04:40.674Z,739.00
2023-05-12T04:05:40.660Z,740.00
2023-05-12T04:06:40.644Z,739.00
2023-05-12T04:07:40.662Z,739.00
2023-05-12T04:08:41.993Z,739.00
2023-05-12T04:09:40.587Z,739.00
2023-05-12T04:10:40.585Z,739.00
2023-05-12T04:11:40.613Z,739.00
2023-05-12T04:12:40.582Z,739.00
2023-05-12T04:13:40.595Z,739.00
2023-05-12T04:14:43.084Z,739.00
2023-05-12T04:15:40.565Z,739.00
2023-05-12T04:16:40.538Z,739.00
2023-05-12T04:17:40.553Z,740.00
2023-05-12T04:18:40.574Z,740.00
2023-05-12T04:19:40.558Z,740.00
2023-05-12T04:20:40.523Z,740.00
2023-05-12T04:21:40.475Z,741.00
2023-05-12T04:22:46.443Z,741.00
2023-05-12T04:23:40.431Z,741.00
2023-05-12T04:24:40.391Z,742.00
2023-05-12T04:25:40.387Z,742.00
2023-05-12T04:26:40.369Z,742.00
2023-05-12T04:27:40.352Z,742.00
2023-05-12T04:28:40.325Z,742.00
2023-05-12T04:29:40.337Z,743.00
2023-05-12T04:30:40.337Z,743.00
2023-05-12T04:31:40.329Z,743.00
2023-05-12T04:32:40.351Z,743.00
2023-05-12T04:33:40.264Z,743.00
2023-05-12T04:34:40.276Z,744.00
2023-05-12T04:35:40.223Z,744.00
2023-05-12T04:36:40.242Z,744.00
2023-05-12T04:37:40.190Z,744.00
2023-05-12T04:38:40.209Z,744.00
2023-05-12T04:39:40.181Z,744.00
2023-05-12T04:40:40.178Z,745.00
2023-05-12T04:41:40.157Z,745.00
2023-05-12T04:42:40.155Z,745.00
2023-05-12T04:44:40.124Z,744.00
2023-05-12T04:45:40.132Z,744.00
2023-05-12T04:46:40.172Z,745.00
2023-05-12T04:47:40.115Z,744.00
2023-05-12T04:48:40.061Z,744.00
2023-05-12T04:49:40.067Z,745.00
2023-05-12T04:50:40.044Z,745.00
2023-05-12T04:51:40.045Z,746.00
2023-05-12T04:52:40.056Z,746.00
2023-05-12T04:53:40.011Z,746.00
2023-05-12T04:54:40.014Z,746.00
2023-05-12T04:55:39.972Z,746.00
2023-05-12T04:56:39.972Z,746.00
2023-05-12T04:57:39.926Z,746.00
2023-05-12T04:58:39.933Z,746.00
2023-05-12T04:59:41.288Z,747.00
2023-05-12T05:00:39.889Z,747.00
2023-05-12T05:01:39.885Z,748.00
2023-05-12T05:02:39.875Z,748.00
2023-05-12T05:03:40.064Z,748.00
2023-05-12T05:04:39.882Z,749.00
2023-05-12T05:05:39.831Z,749.00
2023-05-12T05:06:39.822Z,749.00
2023-05-12T05:07:39.824Z,749.00
2023-05-12T05:08:39.798Z,750.00
2023-05-12T05:09:39.798Z,750.00
2023-05-12T05:10:39.761Z,750.00
2023-05-12T05:11:39.747Z,750.00
2023-05-12T05:12:39.729Z,750.00
2023-05-12T05:13:39.724Z,751.00
2023-05-12T05:14:39.705Z,751.00
2023-05-12T05:15:39.725Z,751.00
2023-05-12T05:16:39.686Z,751.00
2023-05-12T05:17:39.874Z,752.00
2023-05-12T05:18:39.675Z,751.00
2023-05-12T05:19:53.631Z,752.00
2023-05-12T05:20:40.841Z,752.00
2023-05-12T05:21:39.624Z,752.00
2023-05-12T05:22:39.625Z,752.00
2023-05-12T05:23:39.596Z,752.00
2023-05-12T05:24:39.573Z,752.00
2023-05-12T05:25:39.561Z,752.00
2023-05-12T05:26:39.549Z,752.00
2023-05-12T05:27:39.530Z,752.00
2023-05-12T05:28:39.516Z,752.00
2023-05-12T05:29:39.501Z,752.00
2023-05-12T05:30:39.513Z,753.00
2023-05-12T05:31:39.520Z,752.00
2023-05-12T05:32:39.525Z,753.00
2023-05-12T05:33:39.477Z,752.00
2023-05-12T05:34:39.493Z,752.00
2023-05-12T05:35:39.430Z,752.00
2023-05-12T05:36:39.463Z,753.00
2023-05-12T05:37:39.427Z,752.00
2023-05-12T05:38:39.402Z,753.00
2023-05-12T05:39:39.371Z,753.00
2023-05-12T05:40:52.254Z,753.00
2023-05-12T05:41:39.348Z,753.00
2023-05-12T05:42:39.385Z,753.00
2023-05-12T05:43:39.351Z,754.00
2023-05-12T05:44:39.318Z,754.00
2023-05-12T05:45:39.431Z,754.00
2023-05-12T05:46:39.415Z,754.00
2023-05-12T05:47:39.395Z,754.00
2023-05-12T05:48:39.286Z,754.00
2023-05-12T05:49:39.254Z,755.00
2023-05-12T05:50:39.257Z,755.00
2023-05-12T05:51:39.230Z,755.00
2023-05-12T05:52:39.220Z,755.00
2023-05-12T05:53:39.232Z,755.00
2023-05-12T05:54:39.170Z,755.00
2023-05-12T05:55:39.173Z,755.00
2023-05-12T05:56:39.147Z,756.00
2023-05-12T05:57:39.152Z,756.00
2023-05-12T05:58:39.140Z,756.00
2023-05-12T05:59:39.116Z,756.00
2023-05-12T06:00:39.105Z,756.00
2023-05-12T06:01:39.106Z,756.00
2023-05-12T06:02:39.165Z,756.00
2023-05-12T06:03:39.077Z,757.00
2023-05-12T06:04:39.082Z,757.00
2023-05-12T06:05:39.036Z,757.00
2023-05-12T06:06:39.062Z,757.00
2023-05-12T06:07:38.989Z,758.00
2023-05-12T06:08:39.001Z,758.00
2023-05-12T06:09:38.976Z,758.00
2023-05-12T06:10:39.000Z,758.00
2023-05-12T06:11:38.951Z,758.00
2023-05-12T06:12:38.932Z,758.00
2023-05-12T06:13:38.928Z,758.00
2023-05-12T06:14:38.928Z,758.00
2023-05-12T06:15:38.903Z,758.00
2023-05-12T06:16:38.920Z,759.00
2023-05-12T06:17:38.898Z,759.00
2023-05-12T06:18:38.911Z,759.00
2023-05-12T06:19:38.848Z,760.00
2023-05-12T06:20:38.826Z,760.00
2023-05-12T06:21:38.807Z,760.00
2023-05-12T06:22:38.823Z,760.00
2023-05-12T06:23:38.792Z,760.00
2023-05-12T06:24:38.806Z,761.00
2023-05-12T06:25:38.830Z,761.00
2023-05-12T06:26:38.739Z,761.00
2023-05-12T06:27:38.727Z,761.00
2023-05-12T06:28:38.727Z,761.00
2023-05-12T06:29:38.696Z,761.00
2023-05-12T06:30:38.714Z,761.00
2023-05-12T06:31:38.704Z,762.00
2023-05-12T06:32:38.746Z,762.00
2023-05-12T06:33:38.667Z,762.00
2023-05-12T06:34:38.625Z,762.00
2023-05-12T06:35:38.622Z,762.00
2023-05-12T06:36:38.616Z,762.00
2023-05-12T06:37:38.604Z,762.00
2023-05-12T06:38:38.594Z,762.00
2023-05-12T06:39:38.578Z,762.00
2023-05-12T06:40:38.584Z,762.00
2023-05-12T06:41:38.533Z,762.00
2023-05-12T06:42:38.528Z,763.00
2023-05-12T06:43:38.517Z,763.00
2023-05-12T06:44:40.002Z,763.00
2023-05-12T06:45:38.496Z,763.00
2023-05-12T06:46:38.556Z,763.00
2023-05-12T06:47:38.507Z,763.00
2023-05-12T06:48:38.462Z,763.00
2023-05-12T06:49:38.421Z,763.00
2023-05-12T06:50:38.440Z,763.00
2023-05-12T06:51:38.418Z,763.00
2023-05-12T06:52:38.393Z,763.00
2023-05-12T06:53:38.378Z,763.00
2023-05-12T06:54:38.380Z,763.00
2023-05-12T06:55:38.337Z,764.00
2023-05-12T06:56:38.352Z,764.00
2023-05-12T06:57:38.349Z,764.00
2023-05-12T06:58:38.308Z,764.00
2023-05-12T06:59:38.308Z,764.00
2023-05-12T07:00:38.292Z,764.00
2023-05-12T07:01:38.445Z,764.00
2023-05-12T07:02:38.303Z,763.00
2023-05-12T07:03:38.268Z,763.00
2023-05-12T07:04:38.234Z,763.00
2023-05-12T07:05:38.256Z,763.00
2023-05-12T07:06:38.223Z,763.00
2023-05-12T07:07:38.197Z,763.00
2023-05-12T07:08:38.165Z,763.00
2023-05-12T07:09:38.166Z,763.00
2023-05-12T07:10:38.132Z,762.00
2023-05-12T07:11:38.117Z,762.00
2023-05-12T07:12:38.119Z,761.00
2023-05-12T07:13:38.119Z,761.00
2023-05-12T07:14:38.084Z,760.00
2023-05-12T07:15:38.096Z,760.00
2023-05-12T07:16:38.090Z,760.00
2023-05-12T07:17:38.047Z,760.00
2023-05-12T07:18:38.070Z,760.00
2023-05-12T07:19:38.031Z,760.00
2023-05-12T07:20:38.012Z,760.00
2023-05-12T07:21:38.011Z,760.00
2023-05-12T07:22:38.804Z,760.00
2023-05-12T07:23:37.998Z,760.00
2023-05-12T07:24:37.942Z,760.00
2023-05-12T07:25:38.114Z,759.00
2023-05-12T07:26:37.962Z,759.00
2023-05-12T07:27:37.906Z,759.00
2023-05-12T07:28:37.935Z,759.00
2023-05-12T07:29:37.875Z,759.00
2023-05-12T07:30:37.867Z,759.00
2023-05-12T07:31:37.912Z,759.00
2023-05-12T07:32:37.901Z,759.00
2023-05-12T07:33:37.843Z,759.00
2023-05-12T07:34:37.833Z,759.00
2023-05-12T07:35:37.795Z,759.00
2023-05-12T07:36:37.817Z,759.00
2023-05-12T07:37:37.790Z,759.00
2023-05-12T07:38:37.775Z,759.00
2023-05-12T07:39:37.755Z,760.00
2023-05-12T07:40:37.772Z,760.00
2023-05-12T07:41:37.764Z,760.00
2023-05-12T07:42:37.725Z,760.00
2023-05-12T07:43:37.689Z,760.00
2023-05-12T07:44:37.688Z,760.00
2023-05-12T07:45:37.680Z,760.00
2023-05-12T07:46:37.719Z,760.00
2023-05-12T07:47:37.702Z,761.00
2023-05-12T07:48:37.635Z,760.00
2023-05-12T07:49:37.626Z,760.00
2023-05-12T07:50:37.656Z,760.00
2023-05-12T07:51:37.591Z,761.00
2023-05-12T07:52:37.579Z,761.00
2023-05-12T07:53:37.570Z,761.00
2023-05-12T07:54:37.564Z,761.00
2023-05-12T07:55:37.544Z,761.00
2023-05-12T07:56:37.575Z,761.00
2023-05-12T07:57:37.531Z,761.00
2023-05-12T07:58:37.511Z,762.00
2023-05-12T07:59:37.477Z,762.00
2023-05-12T08:00:37.525Z,762.00
2023-05-12T08:01:37.492Z,762.00
2023-05-12T08:02:37.589Z,762.00
2023-05-12T08:03:37.470Z,763.00
2023-05-12T08:04:37.514Z,763.00
2023-05-12T08:05:37.401Z,763.00
2023-05-12T08:06:37.426Z,762.00
2023-05-12T08:07:37.434Z,762.00
2023-05-12T08:08:37.388Z,762.00
2023-05-12T08:09:37.372Z,763.00
2023-05-12T08:10:37.360Z,763.00
2023-05-12T08:11:37.342Z,762.00
2023-05-12T08:12:37.331Z,763.00
2023-05-12T08:13:37.298Z,763.00
2023-05-12T08:14:37.301Z,763.00
2023-05-12T08:15:37.311Z,763.00
2023-05-12T08:16:37.404Z,763.00
2023-05-12T08:17:37.243Z,763.00
2023-05-12T08:18:37.270Z,763.00
2023-05-12T08:19:37.210Z,763.00
2023-05-12T08:20:37.242Z,764.00
2023-05-12T08:21:37.240Z,763.00
2023-05-12T08:22:37.200Z,763.00
2023-05-12T08:23:37.227Z,763.00
2023-05-12T08:24:37.168Z,763.00
2023-05-12T08:25:37.160Z,763.00
2023-05-12T08:26:37.173Z,763.00
2023-05-12T08:27:37.108Z,763.00
2023-05-12T08:28:37.133Z,763.00
2023-05-12T08:29:37.108Z,763.00
2023-05-12T08:30:37.145Z,763.00
2023-05-12T08:31:37.093Z,763.00
2023-05-12T08:32:37.319Z,763.00
2023-05-12T08:33:37.023Z,763.00
2023-05-12T08:34:37.020Z,763.00
2023-05-12T08:35:37.006Z,763.00
2023-05-12T08:36:37.010Z,764.00
2023-05-12T08:37:37.025Z,764.00
2023-05-12T08:38:36.989Z,764.00
2023-05-12T08:39:36.960Z,764.00
2023-05-12T08:40:36.930Z,765.00
2023-05-12T08:41:36.933Z,765.00
2023-05-12T08:42:36.922Z,765.00
2023-05-12T08:43:36.889Z,765.00
2023-05-12T08:44:36.922Z,765.00
2023-05-12T08:45:36.876Z,766.00
2023-05-12T08:46:36.942Z,765.00
2023-05-12T08:47:36.863Z,766.00
2023-05-12T08:48:36.855Z,766.00
2023-05-12T08:49:36.848Z,766.00
2023-05-12T08:50:36.795Z,766.00
2023-05-12T08:51:36.810Z,766.00
2023-05-12T08:52:36.800Z,766.00
2023-05-12T08:53:36.796Z,766.00
2023-05-12T08:54:48.729Z,767.00
2023-05-12T08:55:36.756Z,766.00
2023-05-12T08:57:38.191Z,766.00
2023-05-12T08:58:41.564Z,766.00
2023-05-12T08:59:36.695Z,767.00
2023-05-12T09:00:36.747Z,767.00
2023-05-12T09:01:36.987Z,767.00
2023-05-12T09:02:51.428Z,767.00
2023-05-12T09:03:36.840Z,767.00
2023-05-12T09:04:36.711Z,767.00
2023-05-12T09:05:36.641Z,767.00
2023-05-12T09:06:36.620Z,767.00
2023-05-12T09:07:36.612Z,767.00
2023-05-12T09:08:36.609Z,766.00
2023-05-12T09:09:36.565Z,766.00
2023-05-12T09:10:36.601Z,766.00
2023-05-12T09:11:36.533Z,766.00
2023-05-12T09:12:36.530Z,766.00
2023-05-12T09:13:36.528Z,767.00
2023-05-12T09:14:36.485Z,767.00
2023-05-12T09:15:37.234Z,768.00
2023-05-12T09:16:36.541Z,768.00
2023-05-12T09:17:36.538Z,768.00
2023-05-12T09:18:36.470Z,768.00
2023-05-12T09:19:36.454Z,768.00
2023-05-12T09:20:36.500Z,768.00
2023-05-12T09:21:36.457Z,768.00
2023-05-12T09:22:36.393Z,768.00
2023-05-12T09:23:36.412Z,768.00
2023-05-12T09:24:36.366Z,767.00
2023-05-12T09:25:36.392Z,767.00
2023-05-12T09:26:36.484Z,767.00
2023-05-12T09:27:36.367Z,767.00
2023-05-12T09:28:36.319Z,767.00
2023-05-12T09:29:45.137Z,768.00
2023-05-12T09:30:37.028Z,767.00
2023-05-12T09:31:36.383Z,768.00
2023-05-12T09:32:36.376Z,767.00
2023-05-12T09:33:36.279Z,766.00
2023-05-12T09:34:36.246Z,766.00
2023-05-12T09:35:36.255Z,766.00
2023-05-12T09:36:36.257Z,766.00
2023-05-12T09:37:36.234Z,767.00
2023-05-12T09:38:36.206Z,767.00
2023-05-12T09:39:36.282Z,767.00
2023-05-12T09:40:36.189Z,768.00
2023-05-12T09:41:36.208Z,768.00
2023-05-12T09:42:36.176Z,768.00
2023-05-12T09:43:36.166Z,768.00
2023-05-12T09:44:36.154Z,768.00
2023-05-12T09:45:36.208Z,768.00
2023-05-12T09:46:36.218Z,768.00
2023-05-12T09:47:36.126Z,768.00
2023-05-12T09:48:36.099Z,768.00
2023-05-12T09:49:36.102Z,768.00
2023-05-12T09:50:46.501Z,767.00
2023-05-12T09:51:36.058Z,768.00
2023-05-12T09:52:36.031Z,767.00
2023-05-12T09:53:36.036Z,767.00
2023-05-12T09:54:36.026Z,767.00
2023-05-12T09:55:36.030Z,768.00
2023-05-12T09:56:35.974Z,769.00
2023-05-12T09:57:35.986Z,769.00
2023-05-12T09:58:35.946Z,769.00
2023-05-12T09:59:35.955Z,769.00
2023-05-12T10:00:58.687Z,770.00
2023-05-12T10:01:35.953Z,770.00
2023-05-12T10:02:36.032Z,769.00
2023-05-12T10:03:35.908Z,769.00
2023-05-12T10:04:35.994Z,769.00
2023-05-12T10:05:35.873Z,769.00
2023-05-12T10:06:35.883Z,770.00
2023-05-12T10:07:35.858Z,770.00
2023-05-12T10:08:35.870Z,771.00
2023-05-12T10:09:35.846Z,771.00
2023-05-12T10:10:35.838Z,771.00
2023-05-12T10:11:35.803Z,770.00
2023-05-12T10:12:35.822Z,770.00
2023-05-12T10:13:35.837Z,769.00
2023-05-12T10:14:35.775Z,770.00
2023-05-12T10:15:35.765Z,770.00
2023-05-12T10:16:35.769Z,770.00
2023-05-12T10:17:35.776Z,771.00
2023-05-12T10:18:35.762Z,771.00
2023-05-12T10:19:35.727Z,770.00
2023-05-12T10:20:35.735Z,770.00
2023-05-12T10:21:35.682Z,770.00
2023-05-12T10:22:41.826Z,770.00
2023-05-12T10:23:37.645Z,771.00
2023-05-12T10:24:35.663Z,771.00
2023-05-12T10:25:35.673Z,771.00
2023-05-12T10:26:35.675Z,770.00
2023-05-12T10:27:35.681Z,770.00
2023-05-12T10:28:35.597Z,769.00
2023-05-12T10:29:35.622Z,769.00
2023-05-12T10:30:35.592Z,769.00
2023-05-12T10:31:35.624Z,769.00
2023-05-12T10:32:35.625Z,770.00
2023-05-12T10:33:35.547Z,770.00
2023-05-12T10:34:35.539Z,770.00
2023-05-12T10:35:35.565Z,770.00
2023-05-12T10:36:35.515Z,771.00
2023-05-12T10:37:35.518Z,771.00
2023-05-12T10:38:35.499Z,771.00
2023-05-12T10:39:35.463Z,772.00
2023-05-12T10:40:35.462Z,772.00
2023-05-12T10:41:35.469Z,772.00
2023-05-12T10:42:35.456Z,772.00
2023-05-12T10:43:35.418Z,772.00
2023-05-12T10:44:35.408Z,772.00
2023-05-12T10:45:35.393Z,772.00
2023-05-12T10:46:35.448Z,772.00
2023-05-12T10:47:35.448Z,772.00
2023-05-12T10:48:35.398Z,772.00
2023-05-12T10:49:35.361Z,772.00
2023-05-12T10:50:35.347Z,772.00
2023-05-12T10:51:35.350Z,771.00
2023-05-12T10:52:35.307Z,771.00
2023-05-12T10:53:48.694Z,770.00
2023-05-12T10:54:35.306Z,770.00
2023-05-12T10:55:35.426Z,770.00
2023-05-12T10:56:35.565Z,771.00
2023-05-12T10:57:35.419Z,771.00
2023-05-12T10:58:38.916Z,772.00
2023-05-12T10:59:35.465Z,771.00
2023-05-12T11:00:35.403Z,771.00
2023-05-12T11:01:35.974Z,771.00
2023-05-12T11:02:37.540Z,772.00
2023-05-12T11:04:35.398Z,772.00
2023-05-12T11:05:35.433Z,772.00
2023-05-12T11:06:36.305Z,771.00
2023-05-12T11:07:35.620Z,771.00
2023-05-12T11:08:35.933Z,771.00
2023-05-12T11:09:36.570Z,771.00
2023-05-12T11:10:35.723Z,771.00
2023-05-12T11:11:35.903Z,771.00
2023-05-12T11:12:35.119Z,771.00
2023-05-12T11:13:35.075Z,771.00
2023-05-12T11:14:35.635Z,771.00
2023-05-12T11:15:35.071Z,771.00
2023-05-12T11:16:35.295Z,772.00
2023-05-12T11:17:35.109Z,772.00
2023-05-12T11:18:35.241Z,772.00
2023-05-12T11:19:35.165Z,772.00
2023-05-12T11:20:35.034Z,772.00
2023-05-12T11:21:34.990Z,772.00
2023-05-12T11:22:35.011Z,771.00
2023-05-12T11:23:34.970Z,771.00
2023-05-12T11:24:34.998Z,771.00
2023-05-12T11:25:34.977Z,771.00
2023-05-12T11:26:35.004Z,771.00
2023-05-12T11:27:34.968Z,771.00
2023-05-12T11:28:34.927Z,771.00
2023-05-12T11:29:34.928Z,771.00
2023-05-12T11:30:34.936Z,771.00
2023-05-12T11:31:34.920Z,771.00
2023-05-12T11:32:34.897Z,771.00
2023-05-12T11:33:34.913Z,772.00
2023-05-12T11:34:34.840Z,772.00
2023-05-12T11:35:35.018Z,772.00
2023-05-12T11:36:34.817Z,772.00
2023-05-12T11:37:34.817Z,772.00
2023-05-12T11:38:34.790Z,771.00
2023-05-12T11:39:34.778Z,771.00
2023-05-12T11:40:34.760Z,770.00
2023-05-12T11:41:34.771Z,771.00
2023-05-12T11:42:36.211Z,771.00
2023-05-12T11:43:34.723Z,771.00
2023-05-12T11:44:34.741Z,771.00
2023-05-12T11:45:34.765Z,771.00
2023-05-12T11:46:34.694Z,771.00
2023-05-12T11:47:34.739Z,772.00
2023-05-12T11:48:34.768Z,772.00
2023-05-12T11:49:34.718Z,772.00
2023-05-12T11:50:34.648Z,772.00
2023-05-12T11:51:34.688Z,772.00
2023-05-12T11:52:34.631Z,772.00
2023-05-12T11:53:34.631Z,773.00
2023-05-12T11:54:34.596Z,773.00
2023-05-12T11:55:34.757Z,773.00
2023-05-12T11:56:34.618Z,772.00
2023-05-12T11:57:34.566Z,771.00
2023-05-12T11:58:35.625Z,771.00
2023-05-12T11:59:34.577Z,770.00
2023-05-12T12:00:34.529Z,770.00
2023-05-12T12:01:34.529Z,770.00
2023-05-12T12:02:34.568Z,770.00
2023-05-12T12:03:34.593Z,770.00
2023-05-12T12:04:34.713Z,770.00
2023-05-12T12:05:34.497Z,770.00
2023-05-12T12:06:34.541Z,770.00
2023-05-12T12:07:34.495Z,770.00
2023-05-12T12:08:34.473Z,770.00
2023-05-12T12:09:34.436Z,770.00
2023-05-12T12:10:34.424Z,770.00
2023-05-12T12:11:35.641Z,770.00
2023-05-12T12:12:34.436Z,770.00
2023-05-12T12:13:34.388Z,771.00
2023-05-12T12:14:34.386Z,771.00
2023-05-12T12:15:34.374Z,771.00
2023-05-12T12:16:34.410Z,772.00
2023-05-12T12:17:34.407Z,771.00
2023-05-12T12:18:34.378Z,771.00
2023-05-12T12:19:34.329Z,771.00
2023-05-12T12:20:34.319Z,771.00
2023-05-12T12:21:35.704Z,771.00
2023-05-12T12:22:34.707Z,772.00
2023-05-12T12:23:44.073Z,773.00
2023-05-12T12:24:34.347Z,773.00
2023-05-12T12:25:34.418Z,772.00
2023-05-12T12:26:34.223Z,772.00
2023-05-12T12:27:34.227Z,772.00
2023-05-12T12:28:34.234Z,772.00
2023-05-12T12:29:34.206Z,772.00
2023-05-12T12:30:34.247Z,772.00
2023-05-12T12:31:36.261Z,773.00